createdAt,value
2022-10-09T00:01:06.631Z,14.10
2022-10-09T00:03:34.720Z,14.10
2022-10-09T00:06:02.198Z,14.10
2022-10-09T00:08:29.502Z,14.00
2022-10-09T00:10:56.760Z,14.00
2022-10-09T00:13:24.089Z,14.00
2022-10-09T00:15:51.159Z,14.00
2022-10-09T00:18:18.929Z,14.00
2022-10-09T00:20:47.146Z,13.90
2022-10-09T00:23:16.671Z,13.90
2022-10-09T00:25:55.808Z,13.90
2022-10-09T00:28:24.260Z,13.90
2022-10-09T00:30:51.588Z,13.80
2022-10-09T00:33:19.978Z,13.90
2022-10-09T00:35:48.270Z,13.80
2022-10-09T00:38:15.543Z,13.80
2022-10-09T00:40:42.565Z,13.80
2022-10-09T00:43:19.144Z,13.70
2022-10-09T00:45:54.907Z,13.70
2022-10-09T00:48:23.579Z,13.70
2022-10-09T00:50:55.371Z,13.70
2022-10-09T00:53:24.627Z,13.70
2022-10-09T00:55:52.450Z,13.70
2022-10-09T00:58:20.198Z,13.70
2022-10-09T01:00:47.289Z,13.70
2022-10-09T01:03:14.342Z,13.60
2022-10-09T01:05:59.621Z,13.60
2022-10-09T01:08:47.421Z,13.60
2022-10-09T01:11:29.523Z,13.60
2022-10-09T01:14:16.900Z,13.60
2022-10-09T01:17:13.584Z,13.60
2022-10-09T01:20:33.199Z,13.50
2022-10-09T01:23:18.890Z,13.50
2022-10-09T01:26:09.046Z,13.50
2022-10-09T01:28:38.528Z,13.50
2022-10-09T01:31:08.904Z,13.50
2022-10-09T01:33:37.300Z,13.50
2022-10-09T01:36:07.206Z,13.50
2022-10-09T01:38:36.056Z,13.50
2022-10-09T01:41:06.269Z,13.50
2022-10-09T01:43:33.219Z,13.50
2022-10-09T01:46:19.044Z,13.50
2022-10-09T01:49:07.059Z,13.50
2022-10-09T01:51:48.697Z,13.60
2022-10-09T01:54:23.431Z,13.60
2022-10-09T01:56:55.423Z,13.60
2022-10-09T01:59:26.426Z,13.60
2022-10-09T02:01:54.173Z,13.60
2022-10-09T02:04:22.169Z,13.60
2022-10-09T02:06:49.366Z,13.60
2022-10-09T02:09:17.920Z,13.60
2022-10-09T02:11:51.548Z,13.60
2022-10-09T02:14:18.882Z,13.60
2022-10-09T02:16:51.017Z,13.60
2022-10-09T02:19:25.803Z,13.60
2022-10-09T02:22:00.852Z,13.60
2022-10-09T02:24:28.689Z,13.60
2022-10-09T02:26:57.516Z,13.60
2022-10-09T02:29:25.053Z,13.60
2022-10-09T02:31:52.182Z,13.60
2022-10-09T02:34:20.996Z,13.60
2022-10-09T02:36:48.432Z,13.50
2022-10-09T02:39:15.766Z,13.50
2022-10-09T02:41:42.782Z,13.50
2022-10-09T02:44:10.306Z,13.50
2022-10-09T02:46:38.605Z,13.50
2022-10-09T02:49:06.949Z,13.50
2022-10-09T02:51:34.426Z,13.40
2022-10-09T02:54:01.443Z,13.40
2022-10-09T02:56:28.730Z,13.40
2022-10-09T02:58:56.140Z,13.30
2022-10-09T03:01:24.140Z,13.30
2022-10-09T03:03:52.152Z,13.30
2022-10-09T03:06:23.281Z,13.20
2022-10-09T03:08:51.345Z,13.20
2022-10-09T03:11:19.896Z,13.10
2022-10-09T03:13:47.347Z,13.10
2022-10-09T03:16:24.873Z,13.10
2022-10-09T03:18:52.792Z,13.00
2022-10-09T03:21:23.346Z,13.00
2022-10-09T03:23:52.489Z,12.90
2022-10-09T03:26:23.013Z,12.90
2022-10-09T03:28:52.599Z,12.80
2022-10-09T03:31:49.943Z,12.80
2022-10-09T03:34:10.288Z,12.80
2022-10-09T03:36:37.188Z,12.70
2022-10-09T03:39:04.363Z,12.70
2022-10-09T03:41:33.118Z,12.70
2022-10-09T03:44:00.343Z,12.70
2022-10-09T03:46:27.344Z,12.60
2022-10-09T03:48:54.542Z,12.60
2022-10-09T03:51:21.437Z,12.60
2022-10-09T03:53:48.463Z,12.60
2022-10-09T03:56:15.584Z,12.50
2022-10-09T03:58:42.566Z,12.50
2022-10-09T04:01:09.897Z,12.50
2022-10-09T04:03:36.852Z,12.50
2022-10-09T04:06:04.077Z,12.50
2022-10-09T04:08:31.442Z,12.50
2022-10-09T04:11:02.217Z,12.50
2022-10-09T04:13:29.227Z,12.50
2022-10-09T04:15:57.179Z,12.50
2022-10-09T04:18:25.687Z,12.50
2022-10-09T04:20:55.565Z,12.50
2022-10-09T04:23:25.864Z,12.50
2022-10-09T04:26:01.193Z,12.50
2022-10-09T04:28:29.971Z,12.50
2022-10-09T04:30:57.927Z,12.50
2022-10-09T04:33:26.610Z,12.40
2022-10-09T04:35:54.842Z,12.40
2022-10-09T04:38:22.803Z,12.40
2022-10-09T04:40:57.782Z,12.40
2022-10-09T04:43:25.458Z,12.40
2022-10-09T04:45:52.777Z,12.50
2022-10-09T04:48:20.194Z,12.50
2022-10-09T04:50:47.801Z,12.40
2022-10-09T04:53:15.144Z,12.50
2022-10-09T04:55:43.499Z,12.50
2022-10-09T04:58:11.773Z,12.50
2022-10-09T05:00:46.462Z,12.50
2022-10-09T05:03:13.877Z,12.40
2022-10-09T05:05:40.928Z,12.40
2022-10-09T05:08:07.991Z,12.40
2022-10-09T05:10:35.176Z,12.40
2022-10-09T05:13:02.144Z,12.40
2022-10-09T05:15:29.429Z,12.30
2022-10-09T05:17:56.554Z,12.30
2022-10-09T05:20:23.473Z,12.30
2022-10-09T05:22:50.913Z,12.20
2022-10-09T05:25:18.349Z,12.20
2022-10-09T05:27:45.433Z,12.20
2022-10-09T05:30:13.114Z,12.20
2022-10-09T05:32:40.497Z,12.10
2022-10-09T05:35:08.676Z,12.10
2022-10-09T05:37:35.990Z,12.10
2022-10-09T05:40:02.916Z,12.10
2022-10-09T05:42:30.887Z,12.00
2022-10-09T05:44:58.874Z,12.00
2022-10-09T05:47:27.181Z,12.00
2022-10-09T05:49:54.187Z,12.00
2022-10-09T05:52:21.112Z,12.00
2022-10-09T05:54:48.270Z,12.00
2022-10-09T05:57:15.263Z,12.00
2022-10-09T05:59:42.346Z,12.10
2022-10-09T06:02:09.477Z,12.20
2022-10-09T06:04:37.647Z,12.40
2022-10-09T06:07:05.701Z,12.60
2022-10-09T06:09:33.670Z,12.90
2022-10-09T06:12:00.724Z,13.30
2022-10-09T06:14:27.724Z,13.60
2022-10-09T06:16:54.946Z,14.00
2022-10-09T06:19:23.020Z,14.40
2022-10-09T06:21:50.707Z,14.90
2022-10-09T06:24:28.375Z,15.40
2022-10-09T06:26:56.483Z,15.80
2022-10-09T06:29:23.535Z,16.30
2022-10-09T06:31:50.660Z,16.80
2022-10-09T06:34:18.819Z,17.20
2022-10-09T06:36:45.749Z,17.60
2022-10-09T06:39:12.847Z,18.10
2022-10-09T06:41:40.090Z,18.50
2022-10-09T06:44:45.762Z,18.90
2022-10-09T06:47:14.152Z,19.40
2022-10-09T06:49:41.093Z,19.80
2022-10-09T06:52:08.047Z,20.20
2022-10-09T06:54:35.915Z,20.50
2022-10-09T06:57:03.001Z,20.80
2022-10-09T06:59:30.037Z,21.20
2022-10-09T07:01:57.256Z,21.50
2022-10-09T07:04:24.332Z,21.90
2022-10-09T07:06:51.375Z,22.10
2022-10-09T07:09:18.548Z,22.40
2022-10-09T07:11:49.371Z,22.70
2022-10-09T07:14:17.115Z,23.00
2022-10-09T07:16:47.407Z,23.20
2022-10-09T07:19:16.221Z,23.40
2022-10-09T07:21:45.742Z,23.60
2022-10-09T07:24:13.743Z,23.80
2022-10-09T07:26:43.756Z,23.90
2022-10-09T07:29:12.715Z,24.10
2022-10-09T07:31:39.867Z,24.30
2022-10-09T07:34:06.892Z,24.40
2022-10-09T07:36:34.116Z,24.50
2022-10-09T07:39:01.605Z,24.70
2022-10-09T07:41:30.217Z,24.80
2022-10-09T07:43:57.979Z,25.00
2022-10-09T07:46:30.766Z,25.20
2022-10-09T07:49:00.059Z,25.40
2022-10-09T07:51:29.360Z,25.60
2022-10-09T07:53:57.519Z,25.70
2022-10-09T07:56:30.033Z,25.90
2022-10-09T07:59:05.887Z,26.10
2022-10-09T08:01:34.785Z,26.30
2022-10-09T08:04:01.944Z,26.40
2022-10-09T08:06:29.506Z,26.60
2022-10-09T08:08:58.383Z,26.70
2022-10-09T08:11:27.936Z,26.90
2022-10-09T08:13:55.433Z,27.10
2022-10-09T08:16:25.146Z,27.20
2022-10-09T08:19:00.402Z,27.40
2022-10-09T08:21:33.023Z,27.60
2022-10-09T08:24:00.722Z,27.70
2022-10-09T08:26:30.692Z,27.80
2022-10-09T08:29:00.349Z,27.90
2022-10-09T08:31:28.485Z,28.10
2022-10-09T08:33:57.535Z,28.20
2022-10-09T08:36:25.724Z,28.30
2022-10-09T08:38:53.041Z,28.40
2022-10-09T08:41:29.039Z,28.50
2022-10-09T08:44:12.946Z,28.60
2022-10-09T08:47:26.512Z,28.70
2022-10-09T08:50:09.027Z,28.80
2022-10-09T08:53:00.983Z,28.90
2022-10-09T08:55:55.137Z,28.90
2022-10-09T08:58:25.332Z,29.00
2022-10-09T09:00:53.547Z,29.00
2022-10-09T09:03:31.711Z,29.00
2022-10-09T09:06:15.714Z,29.00
2022-10-09T09:09:05.902Z,29.00
2022-10-09T09:11:49.542Z,28.90
2022-10-09T09:14:38.436Z,29.00
2022-10-09T09:17:11.418Z,28.90
2022-10-09T09:20:11.300Z,28.90
2022-10-09T09:22:42.251Z,28.80
2022-10-09T09:25:39.114Z,28.80
2022-10-09T09:28:20.397Z,28.80
2022-10-09T09:30:52.107Z,28.80
2022-10-09T09:33:44.658Z,28.70
2022-10-09T09:36:55.543Z,28.70
2022-10-09T09:42:20.706Z,28.80
2022-10-09T09:45:05.312Z,28.80
2022-10-09T09:47:42.346Z,28.80
2022-10-09T09:50:28.517Z,28.90
2022-10-09T09:53:00.670Z,28.90
2022-10-09T09:55:31.019Z,28.90
2022-10-09T09:58:07.786Z,28.90
2022-10-09T10:00:35.836Z,28.90
2022-10-09T10:03:17.980Z,28.90
2022-10-09T10:05:45.793Z,29.00
2022-10-09T10:08:32.345Z,29.00
2022-10-09T10:11:07.328Z,29.00
2022-10-09T10:13:38.233Z,29.00
2022-10-09T10:16:09.428Z,29.00
2022-10-09T10:18:43.569Z,28.90
2022-10-09T10:21:17.490Z,28.80
2022-10-09T10:23:56.660Z,28.70
2022-10-09T10:26:29.739Z,28.60
2022-10-09T10:29:03.781Z,28.60
2022-10-09T10:31:52.674Z,28.60
2022-10-09T10:34:44.675Z,28.60
2022-10-09T10:37:14.948Z,28.50
2022-10-09T10:40:01.377Z,28.50
2022-10-09T10:42:41.271Z,28.50
2022-10-09T10:45:42.749Z,28.40
2022-10-09T10:48:24.630Z,28.30
2022-10-09T10:51:05.045Z,28.30
2022-10-09T10:54:06.102Z,28.20
2022-10-09T10:56:42.707Z,28.20
2022-10-09T10:59:18.990Z,28.20
2022-10-09T11:02:00.094Z,28.20
2022-10-09T11:04:44.682Z,28.10
2022-10-09T11:07:39.558Z,28.10
2022-10-09T11:10:18.559Z,28.00
2022-10-09T11:12:58.640Z,27.70
2022-10-09T11:15:27.006Z,27.40
2022-10-09T11:18:15.782Z,27.10
2022-10-09T11:21:09.413Z,26.80
2022-10-09T11:24:07.542Z,26.60
2022-10-09T11:27:05.499Z,26.60
2022-10-09T11:29:59.138Z,26.50
2022-10-09T11:32:38.131Z,26.40
2022-10-09T11:35:18.622Z,26.40
2022-10-09T11:37:53.946Z,26.40
2022-10-09T11:40:28.013Z,26.40
2022-10-09T11:43:09.503Z,26.30
2022-10-09T11:46:05.193Z,26.20
2022-10-09T11:48:45.605Z,26.20
2022-10-09T11:51:23.237Z,26.10
2022-10-09T11:53:52.197Z,26.00
2022-10-09T11:56:28.302Z,25.80
2022-10-09T11:59:05.572Z,25.70
2022-10-09T12:01:44.775Z,25.40
2022-10-09T12:04:20.817Z,25.20
2022-10-09T12:07:07.301Z,25.00
2022-10-09T12:09:43.548Z,24.90
2022-10-09T12:12:16.822Z,24.80
2022-10-09T12:14:47.583Z,24.70
2022-10-09T12:17:35.190Z,24.70
2022-10-09T12:20:21.821Z,24.60
2022-10-09T12:23:25.126Z,24.50
2022-10-09T12:25:50.215Z,24.50
2022-10-09T12:28:43.306Z,24.40
2022-10-09T12:31:38.579Z,24.30
2022-10-09T12:34:13.521Z,24.20
2022-10-09T12:36:40.647Z,24.10
2022-10-09T12:39:22.668Z,24.00
2022-10-09T12:41:54.643Z,23.90
2022-10-09T12:44:30.404Z,23.80
2022-10-09T12:47:08.374Z,23.70
2022-10-09T12:49:37.984Z,23.60
2022-10-09T12:52:15.371Z,23.50
2022-10-09T12:54:44.697Z,23.50
2022-10-09T12:57:15.695Z,23.40
2022-10-09T12:59:45.713Z,23.40
2022-10-09T13:02:17.186Z,23.30
2022-10-09T13:04:57.530Z,23.20
2022-10-09T13:07:27.825Z,23.20
2022-10-09T13:10:05.227Z,23.10
2022-10-09T13:12:34.145Z,23.10
2022-10-09T13:15:27.304Z,23.00
2022-10-09T13:17:54.443Z,22.90
2022-10-09T13:20:33.592Z,22.90
2022-10-09T13:23:05.925Z,22.80
2022-10-09T13:25:39.441Z,22.70
2022-10-09T13:28:06.875Z,22.70
2022-10-09T13:30:34.493Z,22.60
2022-10-09T13:33:01.561Z,22.60
2022-10-09T13:35:28.560Z,22.50
2022-10-09T13:37:56.605Z,22.40
2022-10-09T13:40:23.795Z,22.40
2022-10-09T13:42:56.223Z,22.30
2022-10-09T13:45:24.294Z,22.20
2022-10-09T13:47:51.877Z,22.20
2022-10-09T13:50:19.867Z,22.10
2022-10-09T13:52:47.178Z,22.00
2022-10-09T13:55:14.723Z,21.90
2022-10-09T13:57:41.897Z,21.80
2022-10-09T14:00:09.466Z,21.70
2022-10-09T14:02:42.207Z,21.70
2022-10-09T14:05:10.463Z,21.60
2022-10-09T14:07:37.916Z,21.60
2022-10-09T14:10:05.838Z,21.50
2022-10-09T14:12:32.895Z,21.40
2022-10-09T14:14:59.953Z,21.40
2022-10-09T14:17:27.946Z,21.30
2022-10-09T14:19:56.191Z,21.30
2022-10-09T14:22:23.525Z,21.30
2022-10-09T14:24:50.631Z,21.20
2022-10-09T14:27:17.648Z,21.20
2022-10-09T14:29:44.695Z,21.10
2022-10-09T14:32:11.728Z,21.10
2022-10-09T14:34:40.418Z,21.10
2022-10-09T14:37:18.788Z,21.00
2022-10-09T14:39:52.668Z,21.00
2022-10-09T14:42:19.772Z,21.00
2022-10-09T14:44:46.759Z,20.90
2022-10-09T14:47:13.777Z,20.90
2022-10-09T14:49:41.346Z,20.80
2022-10-09T14:52:08.477Z,20.80
2022-10-09T14:54:35.424Z,20.80
2022-10-09T14:57:02.673Z,20.80
2022-10-09T14:59:34.154Z,20.70
2022-10-09T15:02:07.234Z,20.70
2022-10-09T15:04:34.670Z,20.70
2022-10-09T15:07:01.692Z,20.60
2022-10-09T15:09:28.594Z,20.60
2022-10-09T15:11:56.456Z,20.50
2022-10-09T15:14:23.699Z,20.50
2022-10-09T15:16:50.970Z,20.50
2022-10-09T15:19:19.218Z,20.50
2022-10-09T15:21:46.454Z,20.40
2022-10-09T15:24:14.248Z,20.40
2022-10-09T15:26:42.072Z,20.30
2022-10-09T15:29:10.194Z,20.30
2022-10-09T15:31:40.296Z,20.30
2022-10-09T15:34:08.430Z,20.30
2022-10-09T15:36:38.437Z,20.20
2022-10-09T15:39:07.921Z,20.20
2022-10-09T15:41:37.338Z,20.20
2022-10-09T15:44:13.653Z,20.10
2022-10-09T15:46:40.591Z,20.10
2022-10-09T15:49:08.745Z,20.00
2022-10-09T15:51:36.337Z,20.00
2022-10-09T15:54:03.864Z,20.00
2022-10-09T15:56:35.980Z,19.90
2022-10-09T15:59:06.172Z,19.90
2022-10-09T16:01:33.421Z,19.80
2022-10-09T16:04:00.681Z,19.80
2022-10-09T16:06:27.645Z,19.80
2022-10-09T16:08:59.370Z,19.70
2022-10-09T16:11:27.159Z,19.60
2022-10-09T16:13:55.581Z,19.60
2022-10-09T16:16:34.084Z,19.60
2022-10-09T16:19:04.189Z,19.50
2022-10-09T16:21:31.457Z,19.40
2022-10-09T16:24:00.181Z,19.40
2022-10-09T16:26:29.930Z,19.30
2022-10-09T16:28:58.901Z,19.30
2022-10-09T16:31:31.194Z,19.20
2022-10-09T16:33:58.986Z,19.20
2022-10-09T16:36:26.201Z,19.10
2022-10-09T16:38:53.260Z,19.10
2022-10-09T16:41:23.307Z,19.00
2022-10-09T16:43:53.169Z,19.00
2022-10-09T16:46:29.366Z,18.90
2022-10-09T16:48:57.947Z,18.90
2022-10-09T16:51:27.648Z,18.80
2022-10-09T16:53:56.861Z,18.80
2022-10-09T16:56:26.997Z,18.70
2022-10-09T16:58:56.773Z,18.70
2022-10-09T17:01:24.822Z,18.70
2022-10-09T17:03:54.329Z,18.60
2022-10-09T17:06:23.865Z,18.50
2022-10-09T17:08:53.173Z,18.50
2022-10-09T17:11:21.324Z,18.40
2022-10-09T17:13:48.647Z,18.40
2022-10-09T17:16:19.714Z,18.30
2022-10-09T17:18:48.347Z,18.30
2022-10-09T17:21:17.692Z,18.20
2022-10-09T17:23:45.529Z,18.10
2022-10-09T17:26:18.542Z,18.10
2022-10-09T17:28:47.339Z,18.00
2022-10-09T17:31:17.809Z,17.90
2022-10-09T17:33:46.163Z,17.80
2022-10-09T17:36:15.706Z,17.80
2022-10-09T17:38:44.094Z,17.70
2022-10-09T17:41:14.499Z,17.60
2022-10-09T17:43:42.186Z,17.60
2022-10-09T17:46:09.653Z,17.50
2022-10-09T17:48:44.012Z,17.40
2022-10-09T17:51:16.507Z,17.40
2022-10-09T17:53:45.031Z,17.30
2022-10-09T17:56:12.293Z,17.30
2022-10-09T17:58:40.071Z,17.30
2022-10-09T18:01:09.597Z,17.20
2022-10-09T18:03:37.523Z,17.10
2022-10-09T18:06:07.827Z,17.10
2022-10-09T18:08:36.082Z,17.10
2022-10-09T18:11:08.580Z,17.00
2022-10-09T18:13:38.374Z,16.90
2022-10-09T18:16:11.018Z,16.90
2022-10-09T18:18:38.384Z,16.80
2022-10-09T18:21:08.975Z,16.90
2022-10-09T18:23:37.184Z,16.80
2022-10-09T18:26:16.457Z,16.70
2022-10-09T18:28:47.517Z,16.70
2022-10-09T18:31:21.659Z,16.70
2022-10-09T18:33:48.800Z,16.70
2022-10-09T18:36:19.898Z,16.60
2022-10-09T18:38:55.653Z,16.60
2022-10-09T18:41:24.114Z,16.50
2022-10-09T18:43:52.333Z,16.50
2022-10-09T18:46:25.846Z,16.40
2022-10-09T18:48:54.584Z,16.40
2022-10-09T18:51:23.766Z,16.40
2022-10-09T18:53:54.219Z,16.30
2022-10-09T18:56:24.723Z,16.30
2022-10-09T18:58:53.275Z,16.20
2022-10-09T19:01:20.478Z,16.20
2022-10-09T19:03:50.159Z,16.10
2022-10-09T19:06:19.244Z,16.10
2022-10-09T19:08:46.785Z,16.00
2022-10-09T19:11:14.685Z,16.00
2022-10-09T19:13:44.198Z,16.00
2022-10-09T19:16:11.672Z,15.90
2022-10-09T19:18:39.510Z,15.90
2022-10-09T19:21:08.200Z,15.80
2022-10-09T19:23:35.458Z,15.80
2022-10-09T19:26:03.153Z,15.70
2022-10-09T19:28:31.436Z,15.70
2022-10-09T19:31:02.678Z,15.60
2022-10-09T19:33:30.139Z,15.60
2022-10-09T19:35:57.551Z,15.60
2022-10-09T19:38:26.276Z,15.50
2022-10-09T19:40:54.388Z,15.50
2022-10-09T19:43:21.884Z,15.40
2022-10-09T19:45:50.745Z,15.40
2022-10-09T19:48:18.367Z,15.40
2022-10-09T19:50:46.788Z,15.30
2022-10-09T19:53:14.291Z,15.30
2022-10-09T19:55:41.342Z,15.20
2022-10-09T19:58:08.690Z,15.20
2022-10-09T20:00:42.199Z,15.20
2022-10-09T20:03:09.650Z,15.10
2022-10-09T20:05:37.129Z,15.10
2022-10-09T20:08:04.185Z,15.10
2022-10-09T20:10:31.548Z,15.00
2022-10-09T20:12:59.296Z,15.00
2022-10-09T20:15:26.631Z,15.00
2022-10-09T20:17:55.109Z,15.00
2022-10-09T20:20:22.496Z,15.00
2022-10-09T20:22:49.712Z,14.90
2022-10-09T20:25:18.246Z,14.90
2022-10-09T20:27:45.205Z,14.90
2022-10-09T20:30:12.827Z,14.90
2022-10-09T20:32:39.930Z,14.80
2022-10-09T20:35:07.426Z,14.80
2022-10-09T20:37:36.040Z,14.80
2022-10-09T20:40:04.276Z,14.70
2022-10-09T20:42:32.033Z,14.70
2022-10-09T20:44:59.984Z,14.70
2022-10-09T20:47:28.275Z,14.60
2022-10-09T20:49:56.186Z,14.60
2022-10-09T20:52:23.274Z,14.60
2022-10-09T20:54:50.244Z,14.60
2022-10-09T20:57:17.391Z,14.60
2022-10-09T20:59:44.410Z,14.50
2022-10-09T21:02:15.400Z,14.50
2022-10-09T21:04:42.792Z,14.50
2022-10-09T21:07:10.517Z,14.40
2022-10-09T21:09:37.630Z,14.40
2022-10-09T21:12:04.919Z,14.30
2022-10-09T21:14:31.929Z,14.30
2022-10-09T21:16:59.772Z,14.20
2022-10-09T21:19:27.463Z,14.20
2022-10-09T21:21:54.576Z,14.20
2022-10-09T21:24:21.657Z,14.10
2022-10-09T21:26:48.709Z,14.00
2022-10-09T21:29:15.857Z,14.00
2022-10-09T21:31:43.140Z,14.00
2022-10-09T21:34:10.263Z,13.90
2022-10-09T21:36:51.130Z,13.90
2022-10-09T21:39:28.199Z,13.90
2022-10-09T21:41:55.851Z,13.90
2022-10-09T21:44:22.873Z,13.80
2022-10-09T21:46:49.910Z,13.80
2022-10-09T21:49:23.213Z,13.80
2022-10-09T21:51:50.762Z,13.70
2022-10-09T21:54:18.074Z,13.70
2022-10-09T21:56:45.111Z,13.70
2022-10-09T21:59:12.661Z,13.60
2022-10-09T22:01:39.802Z,13.60
2022-10-09T22:04:06.812Z,13.60
2022-10-09T22:06:33.732Z,13.60
2022-10-09T22:09:00.689Z,13.50
2022-10-09T22:11:27.703Z,13.50
2022-10-09T22:13:57.770Z,13.50
2022-10-09T22:16:24.808Z,13.50
2022-10-09T22:18:52.507Z,13.50
2022-10-09T22:21:20.216Z,13.50
2022-10-09T22:23:47.237Z,13.40
2022-10-09T22:26:17.493Z,13.40
2022-10-09T22:28:45.540Z,13.40
2022-10-09T22:31:26.582Z,13.40
2022-10-09T22:34:01.407Z,13.40
2022-10-09T22:36:30.810Z,13.40
2022-10-09T22:39:00.501Z,13.40
2022-10-09T22:41:31.536Z,13.40
2022-10-09T22:43:59.733Z,13.40
2022-10-09T22:46:34.473Z,13.40
2022-10-09T22:49:01.873Z,13.40
2022-10-09T22:51:29.833Z,13.50
2022-10-09T22:53:58.596Z,13.50
2022-10-09T22:56:32.058Z,13.50
2022-10-09T22:59:00.825Z,13.50
2022-10-09T23:01:53.625Z,13.50
2022-10-09T23:04:22.794Z,13.50
2022-10-09T23:06:54.724Z,13.50
2022-10-09T23:09:23.702Z,13.40
2022-10-09T23:11:51.094Z,13.40
2022-10-09T23:14:20.282Z,13.40
2022-10-09T23:16:48.311Z,13.40
2022-10-09T23:19:16.218Z,13.30
2022-10-09T23:21:45.630Z,13.30
2022-10-09T23:24:18.052Z,13.20
2022-10-09T23:26:46.537Z,13.20
2022-10-09T23:29:18.699Z,13.20
2022-10-09T23:31:46.243Z,13.20
2022-10-09T23:34:14.010Z,13.10
2022-10-09T23:36:41.381Z,13.10
2022-10-09T23:39:08.964Z,13.10
2022-10-09T23:41:36.516Z,13.10
2022-10-09T23:44:04.077Z,13.00
2022-10-09T23:46:37.755Z,13.00
2022-10-09T23:49:05.463Z,13.00
2022-10-09T23:51:34.029Z,13.00
2022-10-09T23:54:00.947Z,12.90
2022-10-09T23:56:34.329Z,12.90
2022-10-09T23:59:06.087Z,12.80
